KDMA

Davis Monthan AFB Airport

Tucson, Arizona, USA
METAR KDMA 151858Z 00000KT 10SM FEW015 SCT040 17/13 A3003 RMK AO2A SLP145 T01660125 $
Observed Flight Rules
Feb-15 @ 18:58 UTC (45 minutes ago) Visual Flight Rules
Visibility Clouds
10 miles
  • Few at 1,500' AGL
  • Scattered at 4,000' AGL
Temperatures Readings
Current 17°C / 63°F
Dewpoint 13°C / 55°F
Humidity 77%
Altimeter 30.03" Hg
Pressure 1014.5 hPa
Elevation 824
METAR KDMA 151858Z 00000KT 10SM FEW015 SCT040 17/13 A3003 RMK AO2A SLP145 T01660125 $
Observed Flight Rules
Feb-15 @ 18:58 UTC
(45 minutes ago)
VFR
Clouds
  • Few at 1,500' AGL
  • Scattered at 4,000' AGL
Temperature Dewpoint
17°C / 63°F 13°C / 55°F
Humidity Altimeter Pressure
77% 30.03" Hg 1014.5 hPa